Verona, New York
Current Conditions -  °F | °C
As of 11:34 PM on Thursday 18 Dec 2014 (Local Time) from KRME Reporting Station
Overcast Overcast  
Wind Chill: 21°   Ceiling: 1400
Heat Index: 29°   Visibility: 8mi
Dew Point: 26°   Wind: 8mph
Humidity: 89%   Direction: 300°WNW
Pressure: 30"   Gusts: NA
Location:  43.14°N, 75.57°W
Report Text: KRME 190434Z AUTO 30007KT 8SM OVC014 M02/M03 A3000 RMK AO2 T10171033
Loading
Personal Weather Stations






























Interactive Weather Map New forecast layout! Learn more

10-Day Weather Forecast

Advertisements
Track Severe Weather on mobile